PAL456 RPLC-RCTP
Flight info
| Callsign | PAL456 |
|---|---|
| Flight time | 1h 44m |
| Altitude | 34000 |
| Route | RIANO4R RIANO TR25 CAB B462 LAO/N0459F350 M646 POTIB Q14 TNN TNN1A |
| Aircraft | A21N/M-SDE3FGHIRWY/LB1 |
Departure
| Time | 2026-05-04 16:13 |
|---|---|
| Airport | Clark International Airport / Clark Air Base (RPLC) |
Arrival
| Time | 2026-05-04 17:57 |
|---|---|
| Airport | Taiwan Taoyuan International Airport (RCTP) |
| Time | Latitude | Longitude | Altitude | Speed | Heading |
|---|---|---|---|---|---|
| 2026-05-04 16:12 | 15.33948 | 120.79752 | 7391 ft | 260 kts | 59° |
| 2026-05-04 16:13 | 15.36765 | 120.81940 | 8346 ft | 272 kts | 6° |
| 2026-05-04 16:13 | 15.40561 | 120.81622 | 9351 ft | 278 kts | 356° |
| 2026-05-04 16:14 | 15.44501 | 120.81179 | 10613 ft | 287 kts | 357° |
| 2026-05-04 16:14 | 15.48500 | 120.80817 | 11944 ft | 293 kts | 357° |
| 2026-05-04 16:15 | 15.54707 | 120.80317 | 13763 ft | 303 kts | 357° |
| 2026-05-04 16:16 | 15.58958 | 120.79989 | 14914 ft | 310 kts | 357° |
| 2026-05-04 16:16 | 15.65513 | 120.79491 | 16582 ft | 320 kts | 357° |
| 2026-05-04 16:17 | 15.70021 | 120.79150 | 17618 ft | 327 kts | 357° |
| 2026-05-04 16:18 | 15.76954 | 120.78629 | 18960 ft | 336 kts | 356° |
| 2026-05-04 16:18 | 15.79304 | 120.78452 | 19189 ft | 340 kts | 356° |
| 2026-05-04 16:19 | 15.86488 | 120.77910 | 20034 ft | 347 kts | 356° |
| 2026-05-04 16:19 | 15.91326 | 120.77544 | 20585 ft | 350 kts | 355° |
| 2026-05-04 16:20 | 15.98692 | 120.76987 | 21374 ft | 356 kts | 355° |
| 2026-05-04 16:20 | 16.03675 | 120.76610 | 21906 ft | 359 kts | 355° |
| 2026-05-04 16:21 | 16.11248 | 120.76038 | 22652 ft | 364 kts | 355° |
| 2026-05-04 16:22 | 16.16337 | 120.75651 | 23133 ft | 368 kts | 355° |
| 2026-05-04 16:22 | 16.24063 | 120.75065 | 23852 ft | 373 kts | 355° |
| 2026-05-04 16:23 | 16.31891 | 120.74472 | 24548 ft | 378 kts | 355° |
| 2026-05-04 16:24 | 16.42503 | 120.73666 | 25415 ft | 385 kts | 355° |
| 2026-05-04 16:25 | 16.47915 | 120.73256 | 25839 ft | 389 kts | 354° |
| 2026-05-04 16:26 | 16.58790 | 120.72428 | 26709 ft | 395 kts | 354° |
| 2026-05-04 16:26 | 16.67103 | 120.71796 | 27340 ft | 400 kts | 354° |
| 2026-05-04 16:27 | 16.72700 | 120.71371 | 27742 ft | 403 kts | 354° |
| 2026-05-04 16:28 | 16.81163 | 120.70725 | 28342 ft | 408 kts | 354° |
| 2026-05-04 16:28 | 16.89728 | 120.70071 | 28921 ft | 413 kts | 354° |
| 2026-05-04 16:29 | 17.01252 | 120.69194 | 29728 ft | 416 kts | 353° |
| 2026-05-04 16:30 | 17.09952 | 120.68529 | 30278 ft | 420 kts | 353° |
| 2026-05-04 16:31 | 17.15832 | 120.68080 | 30651 ft | 421 kts | 353° |
| 2026-05-04 16:31 | 17.24638 | 120.67406 | 31185 ft | 423 kts | 353° |
| 2026-05-04 16:32 | 17.33464 | 120.66729 | 31689 ft | 425 kts | 352° |
| 2026-05-04 16:33 | 17.39376 | 120.66276 | 31999 ft | 427 kts | 352° |
| 2026-05-04 16:33 | 17.45320 | 120.65819 | 32317 ft | 428 kts | 352° |
| 2026-05-04 16:34 | 17.51272 | 120.65363 | 32601 ft | 430 kts | 352° |
| 2026-05-04 16:34 | 17.54269 | 120.65132 | 32760 ft | 430 kts | 352° |
| 2026-05-04 16:35 | 17.63284 | 120.64439 | 33205 ft | 433 kts | 352° |
| 2026-05-04 16:35 | 17.72332 | 120.63741 | 33556 ft | 437 kts | 352° |
| 2026-05-04 16:36 | 17.75409 | 120.63505 | 33666 ft | 438 kts | 352° |
| 2026-05-04 16:36 | 17.81515 | 120.63034 | 33898 ft | 440 kts | 352° |
| 2026-05-04 16:37 | 17.90726 | 120.62323 | 33970 ft | 442 kts | 352° |
| 2026-05-04 16:38 | 18.03044 | 120.61373 | 33949 ft | 443 kts | 352° |
| 2026-05-04 16:39 | 18.18425 | 120.60185 | 33945 ft | 442 kts | 352° |
| 2026-05-04 16:40 | 18.30712 | 120.59232 | 33950 ft | 443 kts | 351° |
| 2026-05-04 16:41 | 18.46116 | 120.58039 | 33946 ft | 443 kts | 351° |
| 2026-05-04 16:43 | 18.61496 | 120.56845 | 33942 ft | 443 kts | 351° |
| 2026-05-04 16:43 | 18.70749 | 120.56125 | 33939 ft | 444 kts | 351° |
| 2026-05-04 16:45 | 18.89229 | 120.54684 | 33931 ft | 443 kts | 351° |
| 2026-05-04 16:46 | 19.04672 | 120.53476 | 33934 ft | 444 kts | 351° |
| 2026-05-04 16:47 | 19.17042 | 120.52510 | 33933 ft | 445 kts | 351° |
| 2026-05-04 16:48 | 19.29377 | 120.51543 | 33942 ft | 444 kts | 351° |
| 2026-05-04 16:49 | 19.41746 | 120.50571 | 33946 ft | 444 kts | 351° |
| 2026-05-04 16:50 | 19.54096 | 120.49601 | 33953 ft | 444 kts | 351° |
| 2026-05-04 16:51 | 19.63348 | 120.48872 | 33957 ft | 444 kts | 351° |
| 2026-05-04 16:52 | 19.75695 | 120.47900 | 33957 ft | 444 kts | 351° |
| 2026-05-04 16:53 | 19.84921 | 120.47172 | 33950 ft | 443 kts | 351° |
| 2026-05-04 16:54 | 19.97241 | 120.46198 | 33950 ft | 443 kts | 351° |
| 2026-05-04 16:55 | 20.15737 | 120.44734 | 33954 ft | 444 kts | 351° |
| 2026-05-04 16:56 | 20.31147 | 120.43511 | 33958 ft | 444 kts | 350° |
| 2026-05-04 16:57 | 20.40397 | 120.42775 | 33960 ft | 444 kts | 351° |
| 2026-05-04 16:58 | 20.52739 | 120.41793 | 33961 ft | 444 kts | 350° |
| 2026-05-04 17:00 | 20.71272 | 120.40316 | 33971 ft | 443 kts | 350° |
| 2026-05-04 17:01 | 20.86679 | 120.39084 | 33983 ft | 444 kts | 350° |
| 2026-05-04 17:02 | 20.99032 | 120.38094 | 33988 ft | 444 kts | 350° |
| 2026-05-04 17:03 | 21.08273 | 120.37354 | 33990 ft | 444 kts | 350° |
| 2026-05-04 17:03 | 21.17522 | 120.36610 | 33992 ft | 443 kts | 349° |
| 2026-05-04 17:04 | 21.29807 | 120.35623 | 33993 ft | 442 kts | 349° |
| 2026-05-04 17:05 | 21.42141 | 120.34631 | 33994 ft | 442 kts | 349° |
| 2026-05-04 17:06 | 21.51328 | 120.33888 | 33994 ft | 442 kts | 349° |
| 2026-05-04 17:07 | 21.59532 | 120.33226 | 33993 ft | 442 kts | 349° |
| 2026-05-04 17:07 | 21.66659 | 120.32652 | 33995 ft | 441 kts | 348° |
| 2026-05-04 17:08 | 21.75835 | 120.31907 | 33996 ft | 439 kts | 349° |
| 2026-05-04 17:09 | 21.81934 | 120.31413 | 33995 ft | 439 kts | 348° |
| 2026-05-04 17:09 | 21.88053 | 120.30917 | 33995 ft | 439 kts | 348° |
| 2026-05-04 17:10 | 22.03316 | 120.29677 | 33998 ft | 439 kts | 348° |
| 2026-05-04 17:11 | 22.09409 | 120.29182 | 33995 ft | 438 kts | 348° |
| 2026-05-04 17:12 | 22.18557 | 120.28436 | 34002 ft | 437 kts | 348° |
| 2026-05-04 17:13 | 22.33762 | 120.27195 | 34003 ft | 437 kts | 348° |
| 2026-05-04 17:14 | 22.45995 | 120.26195 | 34006 ft | 438 kts | 348° |
| 2026-05-04 17:15 | 22.55125 | 120.25449 | 34011 ft | 438 kts | 348° |
| 2026-05-04 17:16 | 22.67300 | 120.24450 | 34012 ft | 437 kts | 347° |
| 2026-05-04 17:16 | 22.76322 | 120.23713 | 32885 ft | 432 kts | 347° |
| 2026-05-04 17:17 | 22.79315 | 120.23464 | 32386 ft | 429 kts | 347° |
| 2026-05-04 17:17 | 22.88132 | 120.22740 | 30948 ft | 421 kts | 347° |
| 2026-05-04 17:18 | 22.91041 | 120.22500 | 30467 ft | 419 kts | 347° |
| 2026-05-04 17:18 | 22.96833 | 120.22023 | 29546 ft | 413 kts | 347° |
| 2026-05-04 17:19 | 23.02530 | 120.21552 | 28649 ft | 407 kts | 347° |
| 2026-05-04 17:19 | 23.08138 | 120.21086 | 27837 ft | 401 kts | 347° |
| 2026-05-04 17:20 | 23.13706 | 120.20805 | 27014 ft | 400 kts | 353° |
| 2026-05-04 17:20 | 23.19242 | 120.21287 | 26254 ft | 396 kts | 359° |
| 2026-05-04 17:20 | 23.22002 | 120.21622 | 25859 ft | 393 kts | 359° |
| 2026-05-04 17:21 | 23.27393 | 120.22280 | 25100 ft | 386 kts | 359° |
| 2026-05-04 17:21 | 23.32663 | 120.22913 | 25009 ft | 383 kts | 359° |
| 2026-05-04 17:22 | 23.35301 | 120.23229 | 24927 ft | 379 kts | 359° |
| 2026-05-04 17:22 | 23.37937 | 120.23543 | 24529 ft | 379 kts | 359° |
| 2026-05-04 17:23 | 23.45719 | 120.24474 | 23399 ft | 369 kts | 359° |
| 2026-05-04 17:23 | 23.48261 | 120.24779 | 23033 ft | 366 kts | 359° |
| 2026-05-04 17:23 | 23.53289 | 120.25379 | 22323 ft | 359 kts | 359° |
| 2026-05-04 17:24 | 23.55770 | 120.25677 | 21966 ft | 356 kts | 359° |
| 2026-05-04 17:24 | 23.63095 | 120.26553 | 20904 ft | 349 kts | 359° |
| 2026-05-04 17:25 | 23.65506 | 120.26842 | 20575 ft | 346 kts | 359° |
| 2026-05-04 17:25 | 23.70245 | 120.27639 | 20007 ft | 342 kts | 5° |
| 2026-05-04 17:26 | 23.74910 | 120.28951 | 20002 ft | 348 kts | 11° |
| 2026-05-04 17:26 | 23.81852 | 120.31358 | 20010 ft | 348 kts | 11° |
| 2026-05-04 17:27 | 23.86477 | 120.32965 | 20018 ft | 349 kts | 11° |
| 2026-05-04 17:27 | 23.91111 | 120.34572 | 20022 ft | 348 kts | 11° |
| 2026-05-04 17:28 | 23.95729 | 120.36173 | 20018 ft | 348 kts | 11° |
| 2026-05-04 17:29 | 24.02674 | 120.38583 | 19966 ft | 345 kts | 11° |
| 2026-05-04 17:29 | 24.09483 | 120.40948 | 18971 ft | 340 kts | 11° |
| 2026-05-04 17:30 | 24.16170 | 120.43272 | 17982 ft | 333 kts | 11° |
| 2026-05-04 17:31 | 24.20473 | 120.44769 | 17378 ft | 328 kts | 12° |
| 2026-05-04 17:31 | 24.26965 | 120.47030 | 16360 ft | 325 kts | 11° |
| 2026-05-04 17:32 | 24.31267 | 120.48530 | 15699 ft | 322 kts | 11° |
| 2026-05-04 17:33 | 24.37683 | 120.50768 | 14694 ft | 319 kts | 12° |
| 2026-05-04 17:33 | 24.39773 | 120.51498 | 14378 ft | 317 kts | 12° |
| 2026-05-04 17:34 | 24.46064 | 120.53696 | 13388 ft | 313 kts | 12° |
| 2026-05-04 17:34 | 24.48138 | 120.54421 | 13067 ft | 312 kts | 12° |
| 2026-05-04 17:35 | 24.54314 | 120.56580 | 12142 ft | 307 kts | 12° |
| 2026-05-04 17:35 | 24.58336 | 120.57990 | 11571 ft | 303 kts | 13° |
| 2026-05-04 17:35 | 24.60343 | 120.58694 | 11274 ft | 301 kts | 13° |
| 2026-05-04 17:36 | 24.62337 | 120.59392 | 10975 ft | 299 kts | 13° |
| 2026-05-04 17:36 | 24.64302 | 120.60079 | 10679 ft | 297 kts | 13° |
| 2026-05-04 17:36 | 24.66255 | 120.60837 | 10359 ft | 297 kts | 20° |
| 2026-05-04 17:36 | 24.68081 | 120.61928 | 10062 ft | 298 kts | 31° |
| 2026-05-04 17:37 | 24.69716 | 120.63332 | 9779 ft | 297 kts | 39° |
| 2026-05-04 17:37 | 24.71255 | 120.64845 | 9476 ft | 296 kts | 40° |
| 2026-05-04 17:37 | 24.72776 | 120.66373 | 9176 ft | 294 kts | 40° |
| 2026-05-04 17:37 | 24.74271 | 120.67868 | 8840 ft | 293 kts | 41° |
| 2026-05-04 17:38 | 24.75790 | 120.69377 | 8536 ft | 291 kts | 40° |
| 2026-05-04 17:38 | 24.77274 | 120.70844 | 8246 ft | 290 kts | 40° |
| 2026-05-04 17:38 | 24.78787 | 120.72335 | 7940 ft | 288 kts | 40° |
| 2026-05-04 17:38 | 24.80264 | 120.73789 | 7653 ft | 285 kts | 40° |
| 2026-05-04 17:39 | 24.83219 | 120.76698 | 7039 ft | 282 kts | 41° |
| 2026-05-04 17:39 | 24.84665 | 120.78125 | 6749 ft | 281 kts | 41° |
| 2026-05-04 17:39 | 24.86132 | 120.79572 | 6448 ft | 280 kts | 41° |
| 2026-05-04 17:40 | 24.87564 | 120.80983 | 6228 ft | 277 kts | 41° |
| 2026-05-04 17:40 | 24.88993 | 120.82392 | 6185 ft | 276 kts | 41° |
| 2026-05-04 17:40 | 24.90416 | 120.83798 | 6091 ft | 273 kts | 42° |
| 2026-05-04 17:40 | 24.91610 | 120.85417 | 5871 ft | 272 kts | 69° |
| 2026-05-04 17:41 | 24.91935 | 120.87466 | 5882 ft | 271 kts | 95° |
| 2026-05-04 17:41 | 24.91803 | 120.89523 | 5879 ft | 274 kts | 97° |
| 2026-05-04 17:41 | 24.91639 | 120.91625 | 5877 ft | 271 kts | 97° |
| 2026-05-04 17:41 | 24.91505 | 120.93657 | 5649 ft | 269 kts | 95° |
| 2026-05-04 17:42 | 24.91384 | 120.95719 | 5273 ft | 270 kts | 95° |
| 2026-05-04 17:42 | 24.91277 | 120.97775 | 4999 ft | 268 kts | 95° |
| 2026-05-04 17:42 | 24.91172 | 120.99844 | 4710 ft | 267 kts | 95° |
| 2026-05-04 17:42 | 24.91073 | 121.01874 | 4443 ft | 266 kts | 91° |
| 2026-05-04 17:43 | 24.91450 | 121.03831 | 4116 ft | 265 kts | 61° |
| 2026-05-04 17:43 | 24.92542 | 121.05448 | 3867 ft | 261 kts | 46° |
| 2026-05-04 17:43 | 24.93798 | 121.06873 | 3617 ft | 258 kts | 44° |
| 2026-05-04 17:43 | 24.95033 | 121.08307 | 3351 ft | 256 kts | 46° |
| 2026-05-04 17:44 | 24.96229 | 121.09782 | 3024 ft | 257 kts | 48° |
| 2026-05-04 17:44 | 24.97408 | 121.11286 | 2677 ft | 259 kts | 49° |
| 2026-05-04 17:44 | 24.98562 | 121.12766 | 2327 ft | 251 kts | 50° |
| 2026-05-04 17:44 | 24.99678 | 121.14191 | 1996 ft | 241 kts | 50° |
| 2026-05-04 17:45 | 25.00757 | 121.15565 | 1687 ft | 235 kts | 51° |
| 2026-05-04 17:45 | 25.01822 | 121.16921 | 1386 ft | 232 kts | 51° |
| 2026-05-04 17:45 | 25.02871 | 121.18256 | 1089 ft | 232 kts | 51° |
| 2026-05-04 17:45 | 25.03925 | 121.19604 | 797 ft | 230 kts | 52° |
| 2026-05-04 17:46 | 25.04983 | 121.20944 | 467 ft | 230 kts | 51° |
| 2026-05-04 17:46 | 25.06013 | 121.22242 | 251 ft | 220 kts | 51° |
| 2026-05-04 17:46 | 25.06942 | 121.23405 | 655 ft | 192 kts | 50° |
| 2026-05-04 17:46 | 25.07828 | 121.24509 | 1108 ft | 195 kts | 57° |
| 2026-05-04 17:47 | 25.08661 | 121.25718 | 1410 ft | 206 kts | 41° |
| 2026-05-04 17:47 | 25.09823 | 121.26697 | 1508 ft | 210 kts | 39° |
| 2026-05-04 17:47 | 25.11029 | 121.27591 | 1457 ft | 210 kts | 33° |
| 2026-05-04 17:47 | 25.12387 | 121.28451 | 1452 ft | 242 kts | 39° |
| 2026-05-04 17:48 | 25.13556 | 121.29884 | 1905 ft | 258 kts | 61° |
| 2026-05-04 17:48 | 25.14162 | 121.31651 | 2319 ft | 240 kts | 82° |
| 2026-05-04 17:48 | 25.14129 | 121.33462 | 2596 ft | 241 kts | 104° |
| 2026-05-04 17:48 | 25.13426 | 121.35192 | 2992 ft | 251 kts | 130° |
| 2026-05-04 17:49 | 25.12071 | 121.36287 | 3829 ft | 239 kts | 163° |
| 2026-05-04 17:49 | 25.10478 | 121.36405 | 4543 ft | 233 kts | 196° |
| 2026-05-04 17:49 | 25.09118 | 121.35430 | 4886 ft | 243 kts | 234° |
| 2026-05-04 17:49 | 25.08626 | 121.33650 | 4436 ft | 253 kts | 270° |
| 2026-05-04 17:50 | 25.08758 | 121.31752 | 4374 ft | 245 kts | 278° |
| 2026-05-04 17:50 | 25.08949 | 121.29932 | 4947 ft | 239 kts | 260° |
| 2026-05-04 17:50 | 25.08486 | 121.28168 | 5434 ft | 243 kts | 245° |
| 2026-05-04 17:50 | 25.07596 | 121.26574 | 5346 ft | 238 kts | 234° |
| 2026-05-04 17:51 | 25.06608 | 121.25088 | 5857 ft | 243 kts | 231° |
| 2026-05-04 17:51 | 25.05417 | 121.23789 | 6563 ft | 242 kts | 218° |
| 2026-05-04 17:51 | 25.04049 | 121.22701 | 6798 ft | 250 kts | 217° |
| 2026-05-04 17:51 | 25.02631 | 121.21506 | 6269 ft | 258 kts | 219° |
| 2026-05-04 17:52 | 25.01242 | 121.20229 | 5781 ft | 264 kts | 221° |
| 2026-05-04 17:52 | 24.99872 | 121.18863 | 5320 ft | 268 kts | 224° |
| 2026-05-04 17:52 | 24.98508 | 121.17455 | 4875 ft | 272 kts | 219° |
| 2026-05-04 17:52 | 24.96897 | 121.16356 | 4439 ft | 277 kts | 205° |
| 2026-05-04 17:53 | 24.95048 | 121.15698 | 4042 ft | 278 kts | 199° |
| 2026-05-04 17:53 | 24.93437 | 121.14665 | 4121 ft | 256 kts | 226° |
| 2026-05-04 17:53 | 24.92527 | 121.13063 | 4211 ft | 244 kts | 253° |
| 2026-05-04 17:53 | 24.92434 | 121.11250 | 4231 ft | 235 kts | 282° |
| 2026-05-04 17:54 | 24.93163 | 121.09718 | 4210 ft | 227 kts | 316° |
| 2026-05-04 17:54 | 24.94621 | 121.09049 | 4385 ft | 233 kts | 359° |
| 2026-05-04 17:54 | 24.96136 | 121.09669 | 4482 ft | 244 kts | 41° |
| 2026-05-04 17:54 | 24.97109 | 121.11239 | 3884 ft | 258 kts | 61° |
| 2026-05-04 17:55 | 24.98186 | 121.12876 | 3194 ft | 273 kts | 44° |
| 2026-05-04 17:55 | 24.99637 | 121.14254 | 2633 ft | 276 kts | 40° |
| 2026-05-04 17:55 | 25.01005 | 121.15663 | 2339 ft | 259 kts | 48° |
| 2026-05-04 17:55 | 25.02115 | 121.17171 | 1857 ft | 257 kts | 53° |
| 2026-05-04 17:56 | 25.03270 | 121.18701 | 1239 ft | 260 kts | 51° |
| 2026-05-04 17:56 | 25.04453 | 121.20202 | 696 ft | 259 kts | 51° |
| 2026-05-04 17:56 | 25.05588 | 121.21697 | 309 ft | 252 kts | 51° |
| 2026-05-04 17:56 | 25.06702 | 121.23126 | 115 ft | 239 kts | 50° |
| 2026-05-04 17:57 | 25.07638 | 121.24321 | 114 ft | 157 kts | 49° |
| 2026-05-04 17:57 | 25.08160 | 121.25001 | 114 ft | 78 kts | 51° |
| 2026-05-04 17:57 | 25.08435 | 121.25081 | 114 ft | 23 kts | 323° |